createdAt,value
2023-05-14T00:17:04.142Z,12.70
2023-05-14T00:19:30.926Z,12.70
2023-05-14T00:21:57.780Z,12.60
2023-05-14T00:24:24.805Z,12.70
2023-05-14T00:26:51.622Z,12.70
2023-05-14T00:29:18.430Z,12.80
2023-05-14T00:31:45.405Z,12.70
2023-05-14T00:34:12.319Z,12.70
2023-05-14T00:36:39.145Z,12.70
2023-05-14T00:39:05.987Z,12.70
2023-05-14T00:41:33.037Z,12.80
2023-05-14T00:43:59.857Z,12.70
2023-05-14T00:46:27.350Z,12.70
2023-05-14T00:48:54.462Z,12.70
2023-05-14T00:51:22.444Z,12.70
2023-05-14T00:53:50.255Z,12.70
2023-05-14T00:56:17.786Z,12.60
2023-05-14T00:58:44.682Z,12.60
2023-05-14T01:01:15.109Z,12.60
2023-05-14T01:03:42.914Z,12.60
2023-05-14T01:06:22.883Z,12.60
2023-05-14T01:09:25.619Z,12.50
2023-05-14T01:12:11.003Z,12.50
2023-05-14T01:14:56.726Z,12.40
2023-05-14T01:17:29.485Z,12.40
2023-05-14T01:19:57.807Z,12.40
2023-05-14T01:22:24.624Z,12.40
2023-05-14T01:24:51.463Z,12.40
2023-05-14T01:27:43.511Z,12.40
2023-05-14T01:30:28.465Z,12.40
2023-05-14T01:32:58.238Z,12.40
2023-05-14T01:35:28.487Z,12.40
2023-05-14T01:37:58.334Z,12.40
2023-05-14T01:40:26.098Z,12.40
2023-05-14T01:42:54.176Z,12.40
2023-05-14T01:45:22.362Z,12.40
2023-05-14T01:47:49.440Z,12.40
2023-05-14T01:50:16.718Z,12.40
2023-05-14T01:52:43.724Z,12.30
2023-05-14T01:55:10.954Z,12.30
2023-05-14T01:57:37.820Z,12.30
2023-05-14T02:00:05.278Z,12.30
2023-05-14T02:02:32.188Z,12.30
2023-05-14T02:04:59.099Z,12.20
2023-05-14T02:07:25.923Z,12.30
2023-05-14T02:09:52.749Z,12.20
2023-05-14T02:12:19.578Z,12.20
2023-05-14T02:14:46.599Z,12.20
2023-05-14T02:17:15.891Z,12.10
2023-05-14T02:19:42.727Z,12.10
2023-05-14T02:22:09.566Z,12.10
2023-05-14T02:24:36.534Z,12.10
2023-05-14T02:27:03.534Z,12.10
2023-05-14T02:29:30.433Z,12.00
2023-05-14T02:31:57.526Z,12.00
2023-05-14T02:34:25.548Z,12.00
2023-05-14T02:36:52.452Z,12.00
2023-05-14T02:39:19.267Z,11.90
2023-05-14T02:41:46.084Z,11.90
2023-05-14T02:44:12.939Z,11.90
2023-05-14T02:46:39.883Z,11.90
2023-05-14T02:49:06.742Z,11.90
2023-05-14T02:51:33.574Z,11.80
2023-05-14T02:54:00.471Z,11.80
2023-05-14T02:56:27.330Z,11.80
2023-05-14T02:58:54.160Z,11.90
2023-05-14T03:01:21.710Z,11.90
2023-05-14T03:03:49.398Z,11.80
2023-05-14T03:06:16.694Z,11.80
2023-05-14T03:08:43.542Z,11.80
2023-05-14T03:11:10.476Z,11.80
2023-05-14T03:13:37.261Z,11.80
2023-05-14T03:16:04.146Z,11.80
2023-05-14T03:18:31.106Z,11.70
2023-05-14T03:20:57.924Z,11.70
2023-05-14T03:23:24.786Z,11.70
2023-05-14T03:25:52.507Z,11.70
2023-05-14T03:28:19.351Z,11.70
2023-05-14T03:30:46.269Z,11.70
2023-05-14T03:33:13.126Z,11.70
2023-05-14T03:35:40.509Z,11.70
2023-05-14T03:38:07.574Z,11.60
2023-05-14T03:40:34.461Z,11.60
2023-05-14T03:43:01.328Z,11.60
2023-05-14T03:45:30.334Z,11.60
2023-05-14T03:47:57.322Z,11.60
2023-05-14T03:50:25.811Z,11.50
2023-05-14T03:52:53.442Z,11.40
2023-05-14T03:55:20.788Z,11.50
2023-05-14T03:57:50.754Z,11.40
2023-05-14T04:00:17.738Z,11.40
2023-05-14T04:02:44.837Z,11.40
2023-05-14T04:05:11.974Z,11.40
2023-05-14T04:07:38.802Z,11.40
2023-05-14T04:10:06.382Z,11.40
2023-05-14T04:12:33.191Z,11.40
2023-05-14T04:14:59.998Z,11.40
2023-05-14T04:17:26.935Z,11.30
2023-05-14T04:19:53.832Z,11.30
2023-05-14T04:22:20.653Z,11.40
2023-05-14T04:24:47.503Z,11.40
2023-05-14T04:27:21.624Z,11.40
2023-05-14T04:29:49.703Z,11.40
2023-05-14T04:32:17.763Z,11.40
2023-05-14T04:34:44.692Z,11.40
2023-05-14T04:37:11.532Z,11.40
2023-05-14T04:39:38.492Z,11.40
2023-05-14T04:42:06.821Z,11.40
2023-05-14T04:44:34.939Z,11.40
2023-05-14T04:47:02.183Z,11.40
2023-05-14T04:49:29.370Z,11.40
2023-05-14T04:51:56.254Z,11.40
2023-05-14T04:54:23.204Z,11.40
2023-05-14T04:56:50.699Z,11.50
2023-05-14T04:59:17.568Z,11.50
2023-05-14T05:01:45.877Z,11.50
2023-05-14T05:04:13.185Z,11.60
2023-05-14T05:06:40.275Z,11.60
2023-05-14T05:09:08.692Z,11.60
2023-05-14T05:11:35.564Z,11.70
2023-05-14T05:14:02.357Z,11.70
2023-05-14T05:16:29.174Z,11.70
2023-05-14T05:18:56.488Z,11.70
2023-05-14T05:21:23.469Z,11.70
2023-05-14T05:23:51.737Z,11.80
2023-05-14T05:26:18.539Z,11.80
2023-05-14T05:28:45.624Z,11.80
2023-05-14T05:31:12.699Z,11.80
2023-05-14T05:33:39.729Z,11.70
2023-05-14T05:36:06.711Z,11.80
2023-05-14T05:38:33.518Z,11.80
2023-05-14T05:41:00.367Z,11.80
2023-05-14T05:43:28.583Z,11.90
2023-05-14T05:45:55.517Z,11.90
2023-05-14T05:48:22.372Z,11.90
2023-05-14T05:50:50.229Z,12.00
2023-05-14T05:53:17.610Z,12.00
2023-05-14T05:55:44.414Z,12.10
2023-05-14T05:58:11.257Z,12.10
2023-05-14T06:00:38.134Z,12.10
2023-05-14T06:03:04.990Z,12.10
2023-05-14T06:05:31.866Z,12.10
2023-05-14T06:07:58.808Z,12.20
2023-05-14T06:10:25.715Z,12.20
2023-05-14T06:12:52.679Z,12.20
2023-05-14T06:15:19.602Z,12.30
2023-05-14T06:17:46.610Z,12.30
2023-05-14T06:20:13.615Z,12.30
2023-05-14T06:22:40.561Z,12.40
2023-05-14T06:25:08.184Z,12.30
2023-05-14T06:27:34.988Z,12.40
2023-05-14T06:30:01.827Z,12.50
2023-05-14T06:32:29.248Z,12.50
2023-05-14T06:34:56.085Z,12.70
2023-05-14T06:37:22.900Z,12.90
2023-05-14T06:39:52.519Z,13.00
2023-05-14T06:42:19.364Z,13.20
2023-05-14T06:44:46.160Z,13.30
2023-05-14T06:47:13.106Z,13.40
2023-05-14T06:49:40.272Z,13.40
2023-05-14T06:52:08.277Z,13.50
2023-05-14T06:54:35.112Z,13.50
2023-05-14T06:57:02.012Z,13.60
2023-05-14T06:59:28.960Z,13.60
2023-05-14T07:01:58.471Z,13.70
2023-05-14T07:04:25.530Z,13.80
2023-05-14T07:06:52.437Z,13.90
2023-05-14T07:09:19.719Z,14.00
2023-05-14T07:11:46.514Z,14.20
2023-05-14T07:14:13.370Z,14.50
2023-05-14T07:16:41.676Z,14.90
2023-05-14T07:19:08.941Z,15.20
2023-05-14T07:21:36.225Z,15.40
2023-05-14T07:24:03.432Z,15.70
2023-05-14T07:26:30.634Z,16.10
2023-05-14T07:28:57.945Z,16.30
2023-05-14T07:31:24.774Z,16.60
2023-05-14T07:33:51.648Z,16.80
2023-05-14T07:36:18.588Z,17.00
2023-05-14T07:38:45.469Z,17.10
2023-05-14T07:41:12.292Z,17.10
2023-05-14T07:43:40.501Z,17.10
2023-05-14T07:46:07.462Z,17.10
2023-05-14T07:48:34.357Z,17.20
2023-05-14T07:51:01.249Z,17.40
2023-05-14T07:53:28.100Z,17.40
2023-05-14T07:55:55.114Z,17.60
2023-05-14T07:58:22.106Z,17.70
2023-05-14T08:00:49.049Z,17.80
2023-05-14T08:03:16.099Z,18.00
2023-05-14T08:05:43.087Z,18.20
2023-05-14T08:08:10.694Z,18.30
2023-05-14T08:10:37.507Z,18.30
2023-05-14T08:13:04.437Z,18.10
2023-05-14T08:15:31.520Z,18.00
2023-05-14T08:18:03.401Z,18.10
2023-05-14T08:20:31.206Z,18.20
2023-05-14T08:22:58.333Z,18.20
2023-05-14T08:25:25.144Z,18.30
2023-05-14T08:27:53.647Z,18.20
2023-05-14T08:30:21.869Z,18.20
2023-05-14T08:32:48.883Z,18.30
2023-05-14T08:35:16.257Z,18.30
2023-05-14T08:37:43.106Z,18.30
2023-05-14T08:40:10.608Z,18.30
2023-05-14T08:42:43.170Z,18.30
2023-05-14T08:45:14.076Z,18.30
2023-05-14T08:47:41.018Z,18.20
2023-05-14T08:50:08.416Z,18.20
2023-05-14T08:52:36.054Z,18.10
2023-05-14T08:55:06.891Z,18.00
2023-05-14T08:57:34.502Z,18.00
2023-05-14T09:00:05.859Z,18.00
2023-05-14T09:02:33.143Z,18.00
2023-05-14T09:05:01.522Z,18.00
2023-05-14T09:07:28.653Z,18.10
2023-05-14T09:09:55.949Z,18.30
2023-05-14T09:12:23.234Z,18.50
2023-05-14T09:14:51.161Z,18.70
2023-05-14T09:17:18.934Z,18.80
2023-05-14T09:19:49.824Z,19.00
2023-05-14T09:22:18.293Z,19.20
2023-05-14T09:24:46.386Z,19.40
2023-05-14T09:27:22.101Z,19.50
2023-05-14T09:29:48.950Z,19.60
2023-05-14T09:32:15.862Z,19.80
2023-05-14T09:34:42.690Z,20.00
2023-05-14T09:37:10.231Z,20.20
2023-05-14T09:39:38.142Z,20.30
2023-05-14T09:42:05.684Z,20.50
2023-05-14T09:44:32.576Z,20.70
2023-05-14T09:46:59.562Z,20.80
2023-05-14T09:49:26.458Z,20.90
2023-05-14T09:51:53.635Z,21.00
2023-05-14T09:54:20.460Z,21.10
2023-05-14T09:56:47.303Z,21.10
2023-05-14T09:59:14.184Z,21.20
2023-05-14T10:01:44.173Z,21.20
2023-05-14T10:04:11.860Z,21.20
2023-05-14T10:06:39.924Z,21.30
2023-05-14T10:09:19.727Z,21.30
2023-05-14T10:11:52.758Z,21.40
2023-05-14T10:14:33.543Z,21.50
2023-05-14T10:17:01.789Z,21.70
2023-05-14T10:19:33.527Z,21.80
2023-05-14T10:22:05.103Z,22.00
2023-05-14T10:24:32.657Z,22.30
2023-05-14T10:27:00.050Z,22.30
2023-05-14T10:29:37.558Z,22.40
2023-05-14T10:32:06.846Z,22.40
2023-05-14T10:34:37.231Z,22.40
2023-05-14T10:37:06.766Z,22.20
2023-05-14T10:39:51.802Z,22.20
2023-05-14T10:42:32.461Z,22.30
2023-05-14T10:45:10.527Z,22.50
2023-05-14T10:47:48.738Z,22.80
2023-05-14T10:50:17.518Z,23.20
2023-05-14T10:52:45.706Z,23.40
2023-05-14T10:55:16.831Z,23.60
2023-05-14T10:57:45.582Z,23.80
2023-05-14T11:00:14.483Z,23.80
2023-05-14T11:02:43.613Z,24.00
2023-05-14T11:05:14.326Z,24.00
2023-05-14T11:07:46.720Z,24.10
2023-05-14T11:10:19.263Z,24.20
2023-05-14T11:12:48.848Z,24.20
2023-05-14T11:15:20.211Z,24.30
2023-05-14T11:17:48.568Z,24.30
2023-05-14T11:20:16.765Z,24.30
2023-05-14T11:22:44.978Z,24.20
2023-05-14T11:25:16.999Z,24.20
2023-05-14T11:27:45.702Z,24.10
2023-05-14T11:30:13.671Z,24.00
2023-05-14T11:32:41.379Z,23.90
2023-05-14T11:35:08.521Z,23.90
2023-05-14T11:37:35.684Z,24.00
2023-05-14T11:40:02.628Z,24.00
2023-05-14T11:42:29.599Z,24.20
2023-05-14T11:44:56.630Z,24.30
2023-05-14T11:47:26.746Z,24.40
2023-05-14T11:49:53.729Z,24.40
2023-05-14T11:52:21.955Z,24.50
2023-05-14T11:54:51.544Z,24.50
2023-05-14T11:57:22.720Z,24.50
2023-05-14T11:59:56.149Z,24.50
2023-05-14T12:02:23.461Z,24.60
2023-05-14T12:04:52.206Z,24.80
2023-05-14T12:07:19.464Z,25.00
2023-05-14T12:09:51.210Z,25.50
2023-05-14T12:12:20.185Z,25.70
2023-05-14T12:14:47.454Z,26.00
2023-05-14T12:17:21.756Z,26.10
2023-05-14T12:19:50.829Z,26.20
2023-05-14T12:22:19.717Z,26.10
2023-05-14T12:25:00.058Z,26.20
2023-05-14T12:27:29.711Z,26.30
2023-05-14T12:30:19.933Z,26.40
2023-05-14T12:32:51.638Z,26.50
2023-05-14T12:35:21.292Z,26.40
2023-05-14T12:37:48.215Z,26.20
2023-05-14T12:40:15.352Z,26.20
2023-05-14T12:42:42.235Z,26.20
2023-05-14T12:45:09.354Z,26.30
2023-05-14T12:47:37.162Z,26.10
2023-05-14T12:50:06.025Z,25.90
2023-05-14T12:52:38.575Z,25.80
2023-05-14T12:55:09.967Z,25.70
2023-05-14T12:57:39.053Z,25.70
2023-05-14T13:00:08.186Z,25.60
2023-05-14T13:02:42.905Z,25.60
2023-05-14T13:05:11.992Z,25.80
2023-05-14T13:07:39.273Z,26.00
2023-05-14T13:10:06.859Z,25.80
2023-05-14T13:12:33.990Z,25.60
2023-05-14T13:15:00.905Z,25.60
2023-05-14T13:17:27.981Z,25.50
2023-05-14T13:19:55.003Z,25.60
2023-05-14T13:22:21.848Z,25.70
2023-05-14T13:24:48.620Z,25.70
2023-05-14T13:27:15.484Z,25.60
2023-05-14T13:29:42.309Z,25.60
2023-05-14T13:32:09.179Z,25.60
2023-05-14T13:34:36.569Z,25.50
2023-05-14T13:37:04.038Z,25.50
2023-05-14T13:39:31.030Z,25.40
2023-05-14T13:41:57.995Z,25.20
2023-05-14T13:44:25.118Z,25.10
2023-05-14T13:46:52.342Z,25.00
2023-05-14T13:49:19.376Z,24.80
2023-05-14T13:51:46.231Z,24.70
2023-05-14T13:54:13.123Z,24.60
2023-05-14T13:56:40.212Z,24.60
2023-05-14T13:59:07.200Z,24.60
2023-05-14T14:01:34.167Z,24.60
2023-05-14T14:04:01.077Z,24.60
2023-05-14T14:06:27.915Z,24.50
2023-05-14T14:08:54.935Z,24.50
2023-05-14T14:11:22.035Z,24.40
2023-05-14T14:13:48.943Z,24.60
2023-05-14T14:16:16.338Z,24.80
2023-05-14T14:18:43.597Z,25.10
2023-05-14T14:21:10.979Z,24.90
2023-05-14T14:23:38.061Z,24.80
2023-05-14T14:26:04.901Z,24.60
2023-05-14T14:28:31.760Z,24.40
2023-05-14T14:30:58.583Z,24.40
2023-05-14T14:33:25.734Z,24.20
2023-05-14T14:35:52.960Z,24.10
2023-05-14T14:38:19.932Z,24.10
2023-05-14T14:40:46.925Z,24.20
2023-05-14T14:43:13.856Z,24.30
2023-05-14T14:45:46.849Z,24.60
2023-05-14T14:48:37.584Z,24.80
2023-05-14T14:51:06.228Z,25.00
2023-05-14T14:53:34.475Z,25.00
2023-05-14T14:56:01.728Z,25.00
2023-05-14T14:58:29.297Z,25.00
2023-05-14T15:00:57.621Z,25.00
2023-05-14T15:03:25.309Z,24.80
2023-05-14T15:05:53.506Z,24.70
2023-05-14T15:08:24.645Z,24.70
2023-05-14T15:10:51.618Z,24.90
2023-05-14T15:13:19.263Z,25.10
2023-05-14T15:15:46.087Z,25.10
2023-05-14T15:18:13.136Z,25.10
2023-05-14T15:20:40.304Z,25.00
2023-05-14T15:23:07.613Z,24.90
2023-05-14T15:25:34.511Z,24.50
2023-05-14T15:28:01.409Z,24.30
2023-05-14T15:30:28.284Z,24.20
2023-05-14T15:32:56.046Z,23.90
2023-05-14T15:35:23.353Z,23.70
2023-05-14T15:37:50.450Z,23.60
2023-05-14T15:40:18.945Z,23.40
2023-05-14T15:42:46.926Z,23.30
2023-05-14T15:45:14.141Z,23.10
2023-05-14T15:47:41.833Z,23.10
2023-05-14T15:50:09.351Z,23.00
2023-05-14T15:52:36.565Z,23.00
2023-05-14T15:55:06.074Z,22.90
2023-05-14T15:57:33.071Z,22.80
2023-05-14T16:00:00.090Z,22.70
2023-05-14T16:02:30.295Z,22.70
2023-05-14T16:04:57.238Z,22.60
2023-05-14T16:07:24.307Z,22.60
2023-05-14T16:09:51.798Z,22.60
2023-05-14T16:12:18.831Z,22.50
2023-05-14T16:14:45.726Z,22.60
2023-05-14T16:17:12.612Z,22.50
2023-05-14T16:19:39.700Z,22.50
2023-05-14T16:22:06.644Z,22.50
2023-05-14T16:24:33.484Z,22.50
2023-05-14T16:27:00.899Z,22.40
2023-05-14T16:29:27.957Z,22.50
2023-05-14T16:31:55.057Z,22.40
2023-05-14T16:34:22.059Z,22.40
2023-05-14T16:36:50.215Z,22.30
2023-05-14T16:39:17.398Z,22.20
2023-05-14T16:41:44.229Z,22.20
2023-05-14T16:44:11.144Z,22.10
2023-05-14T16:46:38.183Z,22.00
2023-05-14T16:49:05.138Z,22.00
2023-05-14T16:51:31.992Z,21.90
2023-05-14T16:53:58.789Z,21.90
2023-05-14T16:56:26.593Z,21.90
2023-05-14T16:58:53.547Z,21.90
2023-05-14T17:01:20.649Z,21.90
2023-05-14T17:03:47.522Z,21.80
2023-05-14T17:06:14.409Z,21.80
2023-05-14T17:08:42.383Z,21.70
2023-05-14T17:11:09.610Z,21.70
2023-05-14T17:13:36.423Z,21.60
2023-05-14T17:16:03.370Z,21.60
2023-05-14T17:18:30.640Z,21.60
2023-05-14T17:20:58.135Z,21.50
2023-05-14T17:23:24.964Z,21.50
2023-05-14T17:25:51.840Z,21.50
2023-05-14T17:28:18.712Z,21.40
2023-05-14T17:30:45.622Z,21.30
2023-05-14T17:33:12.492Z,21.30
2023-05-14T17:35:39.410Z,21.30
2023-05-14T17:38:06.414Z,21.30
2023-05-14T17:40:34.233Z,21.20
2023-05-14T17:43:01.202Z,21.20
2023-05-14T17:45:32.204Z,21.10
2023-05-14T17:48:03.553Z,21.10
2023-05-14T17:50:30.466Z,21.10
2023-05-14T17:52:57.303Z,21.00
2023-05-14T17:55:24.401Z,21.00
2023-05-14T17:57:51.486Z,20.90
2023-05-14T18:00:18.569Z,20.90
2023-05-14T18:02:45.530Z,20.80
2023-05-14T18:05:12.490Z,20.80
2023-05-14T18:07:39.473Z,20.70
2023-05-14T18:10:06.932Z,20.70
2023-05-14T18:12:33.750Z,20.70
2023-05-14T18:15:00.605Z,20.70
2023-05-14T18:17:27.511Z,20.60
2023-05-14T18:19:54.414Z,20.50
2023-05-14T18:22:21.640Z,20.50
2023-05-14T18:24:48.666Z,20.50
2023-05-14T18:27:15.686Z,20.40
2023-05-14T18:29:43.440Z,20.30
2023-05-14T18:32:10.277Z,20.30
2023-05-14T18:34:37.120Z,20.20
2023-05-14T18:37:03.979Z,20.10
2023-05-14T18:39:30.911Z,20.10
2023-05-14T18:41:57.776Z,20.00
2023-05-14T18:44:24.671Z,19.90
2023-05-14T18:46:51.882Z,19.80
2023-05-14T18:49:18.764Z,19.70
2023-05-14T18:51:45.680Z,19.50
2023-05-14T18:54:12.519Z,19.20
2023-05-14T18:56:45.380Z,19.00
2023-05-14T18:59:13.865Z,18.90
2023-05-14T19:01:40.677Z,18.80
2023-05-14T19:04:08.206Z,18.60
2023-05-14T19:06:36.204Z,18.40
2023-05-14T19:09:06.363Z,18.20
2023-05-14T19:11:33.259Z,18.00
2023-05-14T19:14:00.098Z,17.90
2023-05-14T19:16:27.262Z,17.80
2023-05-14T19:18:54.362Z,17.70
2023-05-14T19:21:21.208Z,17.50
2023-05-14T19:23:48.068Z,17.30
2023-05-14T19:26:15.891Z,17.20
2023-05-14T19:28:42.806Z,17.10
2023-05-14T19:31:09.728Z,17.00
2023-05-14T19:33:36.586Z,16.90
2023-05-14T19:36:03.941Z,16.80
2023-05-14T19:38:31.048Z,16.70
2023-05-14T19:40:57.963Z,16.50
2023-05-14T19:43:26.120Z,16.50
2023-05-14T19:45:53.058Z,16.40
2023-05-14T19:48:19.958Z,16.40
2023-05-14T19:50:47.335Z,16.30
2023-05-14T19:53:14.812Z,16.20
2023-05-14T19:55:41.796Z,16.20
2023-05-14T19:58:09.053Z,16.20
2023-05-14T20:00:37.030Z,16.10
2023-05-14T20:03:06.106Z,16.10
2023-05-14T20:05:34.278Z,16.00
2023-05-14T20:08:01.220Z,15.90
2023-05-14T20:10:28.364Z,15.80
2023-05-14T20:12:55.493Z,15.80
2023-05-14T20:15:22.395Z,15.60
2023-05-14T20:17:49.358Z,15.60
2023-05-14T20:20:20.986Z,15.50
2023-05-14T20:22:47.886Z,15.40
2023-05-14T20:25:14.775Z,15.30
2023-05-14T20:27:41.710Z,15.20
2023-05-14T20:30:10.408Z,15.10
2023-05-14T20:32:37.430Z,15.10
2023-05-14T20:35:04.670Z,15.10
2023-05-14T20:37:38.978Z,15.00
2023-05-14T20:40:06.608Z,14.90
2023-05-14T20:42:33.633Z,14.90
2023-05-14T20:45:00.656Z,14.80
2023-05-14T20:47:30.506Z,14.80
2023-05-14T20:49:57.446Z,14.80
2023-05-14T20:52:24.401Z,14.70
2023-05-14T20:54:51.288Z,14.60
2023-05-14T20:57:19.062Z,14.60
2023-05-14T20:59:46.662Z,14.50
2023-05-14T21:02:13.621Z,14.40
2023-05-14T21:04:41.058Z,14.40
2023-05-14T21:07:07.989Z,14.20
2023-05-14T21:09:34.863Z,14.20
2023-05-14T21:12:01.766Z,14.20
2023-05-14T21:14:28.704Z,14.10
2023-05-14T21:16:55.692Z,14.00
2023-05-14T21:19:23.289Z,13.90
2023-05-14T21:21:50.381Z,13.90
2023-05-14T21:24:17.271Z,13.90
2023-05-14T21:26:44.118Z,13.90
2023-05-14T21:29:11.339Z,13.90
2023-05-14T21:31:38.368Z,13.90
2023-05-14T21:34:05.395Z,13.90
2023-05-14T21:36:32.490Z,13.90
2023-05-14T21:38:59.339Z,13.80
2023-05-14T21:41:26.188Z,13.70
2023-05-14T21:44:00.112Z,13.70
2023-05-14T21:46:28.834Z,13.60
2023-05-14T21:48:56.892Z,13.60
2023-05-14T21:51:24.926Z,13.60
2023-05-14T21:53:51.813Z,13.50
2023-05-14T21:56:18.700Z,13.60
2023-05-14T21:58:45.643Z,13.50
2023-05-14T22:01:12.593Z,13.60
2023-05-14T22:03:39.555Z,13.60
2023-05-14T22:06:06.836Z,13.60
2023-05-14T22:08:33.726Z,13.50
2023-05-14T22:11:00.546Z,13.60
2023-05-14T22:13:27.357Z,13.50
2023-05-14T22:16:01.533Z,13.50
2023-05-14T22:18:36.627Z,13.50
2023-05-14T22:21:04.061Z,13.40
2023-05-14T22:23:30.964Z,13.40
2023-05-14T22:25:57.934Z,13.40
2023-05-14T22:28:24.778Z,13.30
2023-05-14T22:30:55.253Z,13.30
2023-05-14T22:33:22.523Z,13.20
2023-05-14T22:35:49.662Z,13.30
2023-05-14T22:38:16.520Z,13.30
2023-05-14T22:40:43.286Z,13.20
2023-05-14T22:43:10.155Z,13.30
2023-05-14T22:45:37.039Z,13.30
2023-05-14T22:48:04.104Z,13.20
2023-05-14T22:50:31.002Z,13.20
2023-05-14T22:52:57.862Z,13.10
2023-05-14T22:55:24.838Z,13.10
2023-05-14T22:57:51.815Z,13.00
2023-05-14T23:00:18.734Z,13.00
2023-05-14T23:02:45.676Z,13.00
2023-05-14T23:05:15.480Z,13.00
2023-05-14T23:07:42.461Z,13.00
2023-05-14T23:10:09.849Z,13.00
2023-05-14T23:12:36.696Z,13.10
2023-05-14T23:15:03.888Z,13.00
2023-05-14T23:17:30.967Z,13.00
2023-05-14T23:19:57.888Z,13.10
2023-05-14T23:22:24.788Z,13.10
2023-05-14T23:24:51.576Z,13.10
2023-05-14T23:27:18.428Z,13.20
2023-05-14T23:29:45.613Z,13.00
2023-05-14T23:32:12.936Z,13.00
2023-05-14T23:34:42.518Z,13.00
2023-05-14T23:37:09.554Z,13.00
2023-05-14T23:39:36.502Z,13.00
2023-05-14T23:42:03.410Z,13.00
2023-05-14T23:44:30.248Z,13.00
2023-05-14T23:46:57.144Z,13.00
2023-05-14T23:49:24.012Z,13.00
2023-05-14T23:51:50.929Z,13.00
2023-05-14T23:54:17.713Z,12.90
2023-05-14T23:56:44.673Z,12.90
2023-05-14T23:59:11.893Z,13.00
